San Francisco, CA

2:32 PM PST on February 12, 2016 (GMT -0800)
San Francisco International | | Change Station
CLOSE
Current Station
Airport
Location: San Francisco,
Elevation: 16 ft
Nearby Weather Stations

Elev 16 ft 37.62 °N, 122.37 °W | Updated 36 minutes ago

Mostly Cloudy
Mostly Cloudy
66 °F
Feels Like 66 °F
N
18
Wind Variable Wind from West

Today
High -- | Low -- °F
--% Chance of Precip.
Yesterday
High -- | Low -- °F
Precip. -- in
Pressure 30.19 in
Visibility 10.0 miles
Clouds Few 900 ft
Scattered Clouds 16000 ft
Mostly Cloudy 20000 ft
Dew Point 53 °F
Humidity 63%
Rainfall 0.00 in
Snow Depth Not available.
7:02 AM 5:45 PM
Waxing Crescent, 24% visible
METAR KSFO 122156Z 27016KT 10SM FEW009 SCT160 BKN200 19/12 A3019 RMK AO2 WSHFT 2138 SLP221 T01890117 $
Pressure 30.19 in
Visibility 10.0 miles
Clouds Few 900 ft
Scattered Clouds 16000 ft
Mostly Cloudy 20000 ft
Dew Point 53 °F
Humidity 63%
Rainfall 0.00 in
Snow Depth Not available.
7:02 AM 5:45 PM
Waxing Crescent, 24% visible
METAR KSFO 122156Z 27016KT 10SM FEW009 SCT160 BKN200 19/12 A3019 RMK AO2 WSHFT 2138 SLP221 T01890117 $

10-Day Weather Forecast

Almanac

Astronomy

Feb. 12, 2016 Rise Set
Actual Time
Civil Twilight
Nautical Twilight
Astronomical Twilight
Moon
Length of Visible Light
Length of Day
Tomorrow will be .
, % of the Moon is Illuminated

Today's Extremes

State Highs State Lows

Community

WunderPhotos

Upload Photos

1,892,422 photos uploaded!

WunderBlog® & News

Nearby

Air Quality

  Air Quality AQ Index Pollutant
Not available.

Snow Depth

Station Depth Elevation

Earthquake Activity

City Distance Mag. Time & Date
Minimum magnitude displayed is 2.5.

Coastal Water Temperatures

Place Temperature

Stations

Nearby Weather Stations

Station Location Temp. Windchill Dew Point Humidity Wind Precip. Elev Updated Type
                   

Watches & Warnings

There are currently no watches in effect.